Time;durP1;ratioP1;P1;durP2;ratioP2;P2;SDS_P1;SDS_P2;PMS_P1;PMS_P2;Temp;Humidity;BMP_temperature;BMP_pressure;BME280_temperature;BME280_humidity;BME280_pressure;Samples;Min_cycle;Max_cycle;Signal;HPM_P1;HPM_P2
2022/02/04 00:01:18;;;;;;;15.63;8.77;;;;;;;4.04;100.00;100322.09;5002572;28;20509;-77
2022/02/04 00:06:39;;;;;;;13.77;8.40;;;;;;;4.01;100.00;100311.78;5004049;28;20244;-77
2022/02/04 00:09:16;;;;;;;14.13;9.20;;;;;;;4.00;100.00;100310.94;4998907;28;20278;-77
2022/02/04 00:20:24;;;;;;;15.20;8.63;;;;;;;4.02;100.00;100295.44;4923785;28;20747;-78
2022/02/04 00:23:02;;;;;;;15.53;8.73;;;;;;;4.01;100.00;100297.19;4993712;28;20690;-79
2022/02/04 00:25:38;;;;;;;16.03;8.87;;;;;;;4.00;100.00;100299.75;5001634;28;20307;-78
2022/02/04 00:28:10;;;;;;;17.63;9.27;;;;;;;3.98;100.00;100304.91;5002837;28;20580;-79
2022/02/04 00:30:41;;;;;;;13.33;8.37;;;;;;;3.97;100.00;100303.19;5001121;28;20235;-79
2022/02/04 00:33:11;;;;;;;18.83;9.10;;;;;;;3.95;100.00;100303.19;5002400;28;20201;-79
2022/02/04 00:35:49;;;;;;;13.97;9.00;;;;;;;3.94;100.00;100296.34;5003843;28;20218;-79
2022/02/04 00:38:24;;;;;;;13.40;9.00;;;;;;;3.93;100.00;100289.44;5005348;28;20200;-78
2022/02/04 00:40:54;;;;;;;15.27;8.47;;;;;;;3.93;100.00;100297.19;5000528;28;20230;-77
2022/02/04 00:43:21;;;;;;;14.37;8.17;;;;;;;3.94;100.00;100298.91;4999508;28;20205;-76
2022/02/04 00:45:52;;;;;;;13.00;8.50;;;;;;;3.95;100.00;100286.88;5003293;28;20307;-76
2022/02/04 00:48:32;;;;;;;14.57;8.23;;;;;;;3.94;100.00;100279.97;4995954;28;20301;-76
2022/02/04 00:51:04;;;;;;;15.30;8.50;;;;;;;3.94;100.00;100287.72;5000773;28;20226;-76
2022/02/04 00:53:36;;;;;;;16.40;9.00;;;;;;;3.94;100.00;100285.13;5001875;28;20482;-76
2022/02/04 00:56:12;;;;;;;16.20;8.60;;;;;;;3.93;100.00;100279.13;5006356;28;21192;-77
2022/02/04 01:26:07;;;;;;;15.73;9.30;;;;;;;3.90;100.00;100296.34;4999536;28;20208;-77
2022/02/04 01:28:36;;;;;;;15.77;9.03;;;;;;;3.89;100.00;100295.50;5001425;28;20292;-77
2022/02/04 01:31:03;;;;;;;15.57;9.57;;;;;;;3.88;100.00;100293.78;4999748;28;20217;-76
2022/02/04 01:33:30;;;;;;;15.67;9.33;;;;;;;3.90;100.00;100296.34;4997007;28;20212;-77
2022/02/04 01:35:59;;;;;;;14.30;8.90;;;;;;;3.90;100.00;100292.03;5003541;28;20209;-76
2022/02/04 01:38:27;;;;;;;16.00;9.17;;;;;;;3.91;100.00;100295.50;5002631;28;20207;-76
2022/02/04 01:40:56;;;;;;;17.83;9.47;;;;;;;3.90;100.00;100291.19;4993053;28;20227;-76
2022/02/04 01:43:22;;;;;;;15.50;9.40;;;;;;;3.89;100.00;100286.91;5001006;28;20561;-76
2022/02/04 01:45:50;;;;;;;16.17;9.00;;;;;;;3.88;100.00;100288.59;4993449;28;20213;-76
2022/02/04 01:48:16;;;;;;;15.67;10.10;;;;;;;3.87;100.00;100284.34;4999640;28;20193;-76
2022/02/04 01:50:45;;;;;;;15.93;9.13;;;;;;;3.86;100.00;100285.19;4997244;28;20255;-76
2022/02/04 01:53:14;;;;;;;15.27;9.53;;;;;;;3.88;100.00;100280.03;5003267;28;20259;-76
2022/02/04 01:55:41;;;;;;;16.43;9.83;;;;;;;3.87;100.00;100275.72;4995280;28;20212;-76
2022/02/04 01:58:08;;;;;;;17.13;9.60;;;;;;;3.87;100.00;100278.28;4996452;28;20206;-75
2022/02/04 02:00:34;;;;;;;17.03;9.87;;;;;;;3.87;100.00;100281.75;4998178;28;20224;-76
2022/02/04 02:03:01;;;;;;;18.30;10.43;;;;;;;3.86;100.00;100286.91;5005344;28;20367;-76
2022/02/04 02:05:27;;;;;;;14.90;9.37;;;;;;;3.86;100.00;100284.34;5002216;28;20209;-76
2022/02/04 02:07:53;;;;;;;17.73;10.00;;;;;;;3.86;100.00;100287.75;5006130;28;20774;-76
2022/02/04 02:10:21;;;;;;;19.60;11.27;;;;;;;3.85;100.00;100295.50;5000430;28;20214;-76
2022/02/04 02:13:00;;;;;;;19.67;10.50;;;;;;;3.85;100.00;100298.09;5009171;28;20211;-76
2022/02/04 02:15:33;;;;;;;18.23;10.50;;;;;;;3.86;100.00;100292.91;4999367;28;20593;-76
2022/02/04 02:43:26;;;;;;;15.27;8.87;;;;;;;3.84;100.00;100297.22;5005958;28;20668;-76
2022/02/04 02:48:58;;;;;;;15.30;9.10;;;;;;;3.78;100.00;100312.72;4981197;28;20212;-76
2022/02/04 02:51:39;;;;;;;15.67;9.90;;;;;;;3.77;100.00;100308.44;5001810;28;20307;-76
2022/02/04 02:54:19;;;;;;;16.27;9.40;;;;;;;3.77;100.00;100313.59;4999874;28;20231;-76
2022/02/04 02:57:12;;;;;;;16.13;9.40;;;;;;;3.75;100.00;100313.59;5005661;28;20216;-76
2022/02/04 02:59:47;;;;;;;15.57;9.10;;;;;;;3.75;100.00;100310.16;4999774;28;20581;-76
2022/02/04 03:02:14;;;;;;;19.10;9.73;;;;;;;3.72;100.00;100303.28;5004813;28;20236;-76
2022/02/04 03:04:40;;;;;;;16.87;9.83;;;;;;;3.72;100.00;100307.59;5000700;28;20565;-76
2022/02/04 03:07:06;;;;;;;20.20;10.03;;;;;;;3.70;100.00;100314.47;5004833;28;20295;-76
2022/02/04 03:09:33;;;;;;;17.90;9.40;;;;;;;3.70;100.00;100302.44;5000345;28;20204;-76
2022/02/04 03:12:00;;;;;;;17.17;9.97;;;;;;;3.69;100.00;100297.28;5003267;28;20239;-76
2022/02/04 03:14:28;;;;;;;18.97;9.60;;;;;;;3.68;100.00;100293.00;5000008;28;20212;-76
2022/02/04 03:16:54;;;;;;;17.43;9.73;;;;;;;3.67;100.00;100294.69;5004731;28;20304;-76
2022/02/04 03:19:22;;;;;;;19.63;10.83;;;;;;;3.67;100.00;100301.59;5002651;28;20196;-75
2022/02/04 03:21:49;;;;;;;19.40;9.47;;;;;;;3.63;100.00;100300.75;5003227;28;20231;-76
2022/02/04 03:24:19;;;;;;;20.10;10.17;;;;;;;3.61;100.00;100302.47;5000656;28;20208;-76
2022/02/04 03:26:49;;;;;;;18.13;9.63;;;;;;;3.60;100.00;100298.16;4998707;28;20211;-76
2022/02/04 03:29:23;;;;;;;19.37;10.70;;;;;;;3.59;100.00;100302.47;5004197;28;20689;-76
2022/02/04 03:31:54;;;;;;;17.50;9.17;;;;;;;3.59;100.00;100307.63;4999034;28;20238;-76
2022/02/04 03:34:20;;;;;;;18.47;9.73;;;;;;;3.58;100.00;100311.06;5004772;28;20580;-76
2022/02/04 03:36:47;;;;;;;17.40;10.17;;;;;;;3.57;100.00;100309.34;5000345;28;20203;-76
2022/02/04 03:39:13;;;;;;;18.27;9.63;;;;;;;3.57;100.00;100317.09;5002308;28;20606;-75
2022/02/04 03:41:40;;;;;;;19.10;9.53;;;;;;;3.56;100.00;100322.25;4995700;28;20251;-76
2022/02/04 03:44:06;;;;;;;20.27;9.73;;;;;;;3.54;100.00;100319.66;5003118;28;20366;-76
2022/02/04 03:46:34;;;;;;;17.40;9.07;;;;;;;3.54;100.00;100316.25;5001158;28;20302;-76
2022/02/04 03:49:00;;;;;;;19.07;9.07;;;;;;;3.52;100.00;100320.53;5002532;28;20208;-76
2022/02/04 03:51:27;;;;;;;16.53;8.50;;;;;;;3.54;100.00;100311.09;4997210;28;20713;-76
2022/02/04 03:53:53;;;;;;;19.50;8.90;;;;;;;3.52;100.00;100308.50;5002022;28;20629;-76
2022/02/04 03:56:20;;;;;;;16.60;9.40;;;;;;;3.53;100.00;100312.78;4999894;28;20220;-76
2022/02/04 03:58:46;;;;;;;17.43;9.17;;;;;;;3.52;100.00;100303.34;4999920;28;20485;-77
2022/02/04 04:01:13;;;;;;;19.17;9.50;;;;;;;3.52;100.00;100297.34;4998983;28;20217;-76
2022/02/04 04:03:40;;;;;;;16.70;8.50;;;;;;;3.53;100.00;100293.88;5003146;28;20683;-77
2022/02/04 04:06:08;;;;;;;16.67;9.50;;;;;;;3.51;100.00;100296.47;5000215;28;20657;-77
2022/02/04 04:08:35;;;;;;;16.40;8.83;;;;;;;3.51;100.00;100299.03;5001954;28;20202;-76
2022/02/04 04:11:01;;;;;;;16.90;9.40;;;;;;;3.50;100.00;100299.91;5000851;28;21037;-77
2022/02/04 04:13:28;;;;;;;17.13;9.10;;;;;;;3.50;100.00;100304.19;5000880;28;20211;-76
2022/02/04 04:15:55;;;;;;;15.40;8.77;;;;;;;3.51;100.00;100300.78;4995623;28;20592;-77
2022/02/04 04:18:21;;;;;;;14.77;8.30;;;;;;;3.51;100.00;100293.88;5001823;28;20200;-76
2022/02/04 04:20:49;;;;;;;18.83;8.90;;;;;;;3.50;100.00;100302.50;4996686;28;20234;-76
2022/02/04 04:23:16;;;;;;;17.37;7.77;;;;;;;3.50;100.00;100302.50;4998828;28;20207;-76
2022/02/04 04:25:42;;;;;;;17.23;8.67;;;;;;;3.49;100.00;100300.78;4997805;28;20217;-76
2022/02/04 04:28:09;;;;;;;16.97;8.50;;;;;;;3.50;100.00;100306.78;4999372;28;20205;-76
2022/02/04 04:30:38;;;;;;;17.07;8.37;;;;;;;3.50;100.00;100305.06;5000142;28;20687;-77
2022/02/04 04:33:05;;;;;;;17.10;7.90;;;;;;;3.48;100.00;100305.94;5004123;28;20592;-76
2022/02/04 04:35:32;;;;;;;17.40;8.27;;;;;;;3.50;100.00;100302.50;4998248;28;20216;-76
2022/02/04 04:38:06;;;;;;;19.20;8.73;;;;;;;3.48;100.00;100314.50;5004365;28;20762;-76
2022/02/04 04:40:55;;;;;;;14.67;8.10;;;;;;;3.48;100.00;100311.94;4997143;28;20274;-76
2022/02/04 04:43:36;;;;;;;16.07;7.67;;;;;;;3.46;100.00;100305.94;4999379;28;20204;-77
2022/02/04 04:46:38;;;;;;;17.03;8.27;;;;;;;3.46;100.00;100307.66;4998462;28;20266;-76
2022/02/04 05:30:19;;;;;;;20.73;10.33;;;;;;;3.53;100.00;100304.19;5002541;28;20219;-76
2022/02/04 05:32:46;;;;;;;22.10;10.00;;;;;;;3.51;100.00;100303.34;4995043;28;20744;-76
2022/02/04 05:35:12;;;;;;;19.07;10.03;;;;;;;3.49;100.00;100303.34;5002161;28;20215;-76
2022/02/04 05:37:43;;;;;;;22.57;9.93;;;;;;;3.48;100.00;100301.63;5003925;28;20292;-76
2022/02/04 05:40:15;;;;;;;21.27;10.40;;;;;;;3.47;100.00;100302.50;5000182;28;20288;-76
2022/02/04 05:42:49;;;;;;;21.17;10.07;;;;;;;3.45;100.00;100296.50;4999451;28;20302;-76
2022/02/04 05:45:19;;;;;;;21.13;9.97;;;;;;;3.46;100.00;100305.94;5006002;28;20210;-76
2022/02/04 05:47:48;;;;;;;20.67;10.70;;;;;;;3.46;100.00;100302.50;5002487;28;20566;-76
2022/02/04 05:50:19;;;;;;;23.23;10.33;;;;;;;3.45;100.00;100301.66;4998865;28;20208;-76
2022/02/04 05:53:02;;;;;;;22.57;10.77;;;;;;;3.42;100.00;100302.50;5000063;28;20278;-76
2022/02/04 05:55:48;;;;;;;21.33;10.13;;;;;;;3.43;100.00;100305.97;5006720;28;20258;-76
2022/02/04 05:58:32;;;;;;;25.00;11.33;;;;;;;3.44;100.00;100306.81;5003198;28;20209;-76
2022/02/04 06:01:12;;;;;;;23.07;10.53;;;;;;;3.44;100.00;100306.81;5003673;28;20264;-76
2022/02/04 06:03:48;;;;;;;22.50;10.70;;;;;;;3.47;100.00;100306.81;5001908;28;20278;-75
2022/02/04 06:06:40;;;;;;;24.30;11.67;;;;;;;3.48;100.00;100314.50;5001238;28;20209;-76
2022/02/04 06:09:37;;;;;;;20.77;10.67;;;;;;;3.49;100.00;100318.81;5002316;28;20633;-76
2022/02/04 06:12:26;;;;;;;26.50;11.37;;;;;;;3.52;100.00;100316.25;5002158;28;20227;-76
2022/02/04 06:15:08;;;;;;;23.30;11.13;;;;;;;3.52;100.00;100323.13;5006345;28;20271;-76
2022/02/04 06:23:10;;;;;;;28.00;12.83;;;;;;;3.53;100.00;100319.66;5004074;28;20229;-76
2022/02/04 06:25:37;;;;;;;23.57;12.03;;;;;;;3.52;100.00;100320.53;5000118;28;20212;-76
2022/02/04 06:28:04;;;;;;;28.30;12.57;;;;;;;3.49;100.00;100318.81;5002774;28;20204;-76
2022/02/04 06:30:32;;;;;;;25.90;12.50;;;;;;;3.49;100.00;100321.41;5003749;28;20585;-76
2022/02/04 06:32:59;;;;;;;30.27;13.37;;;;;;;3.48;100.00;100319.66;5003474;28;20232;-76
2022/02/04 06:35:25;;;;;;;26.20;12.17;;;;;;;3.48;100.00;100314.50;5002218;28;20212;-76
2022/02/04 06:37:51;;;;;;;26.80;11.43;;;;;;;3.49;100.00;100325.69;5003855;28;20542;-76
2022/02/04 06:40:18;;;;;;;25.30;12.47;;;;;;;3.48;100.00;100324.81;5000638;28;20205;-76
2022/02/04 06:42:44;;;;;;;29.67;12.00;;;;;;;3.46;100.00;100316.25;5003632;28;20215;-76
2022/02/04 06:45:11;;;;;;;27.27;12.27;;;;;;;3.45;100.00;100326.53;5001216;28;20205;-76
2022/02/04 06:47:38;;;;;;;23.60;11.33;;;;;;;3.46;100.00;100341.16;5000412;28;20235;-77
2022/02/04 06:50:06;;;;;;;27.10;11.37;;;;;;;3.46;100.00;100338.59;5004786;28;20610;-76
2022/02/04 06:52:32;;;;;;;25.73;12.17;;;;;;;3.46;100.00;100342.00;5002047;28;20213;-76
2022/02/04 06:54:58;;;;;;;28.90;12.87;;;;;;;3.48;100.00;100336.84;5004570;28;20486;-77
2022/02/04 06:57:25;;;;;;;25.43;11.73;;;;;;;3.49;100.00;100336.84;5002894;28;20817;-76
2022/02/04 06:59:53;;;;;;;27.37;12.77;;;;;;;3.50;100.00;100346.31;5001068;28;20291;-77
2022/02/04 07:02:21;;;;;;;26.77;12.67;;;;;;;3.53;100.00;100340.28;5010779;28;20240;-76
2022/02/04 07:04:48;;;;;;;23.27;11.37;;;;;;;3.54;100.00;100349.75;5001647;28;20525;-76
2022/02/04 07:07:16;;;;;;;26.43;12.60;;;;;;;3.54;100.00;100352.34;5000875;28;20208;-76
2022/02/04 07:09:49;;;;;;;25.73;11.30;;;;;;;3.53;100.00;100348.88;4999236;28;20705;-77
2022/02/04 07:12:22;;;;;;;27.90;12.40;;;;;;;3.54;100.00;100344.59;5006658;28;20223;-77
2022/02/04 07:15:25;;;;;;;22.97;12.00;;;;;;;3.54;100.00;100344.59;4998933;28;20689;-77
2022/02/04 07:18:01;;;;;;;25.20;12.20;;;;;;;3.57;100.00;100348.03;5002877;28;20196;-76
2022/02/04 07:20:28;;;;;;;27.90;13.03;;;;;;;3.56;100.00;100351.44;5001664;28;20232;-76
2022/02/04 07:22:54;;;;;;;27.70;12.37;;;;;;;3.58;100.00;100348.88;5009367;28;20208;-77
2022/02/04 07:25:21;;;;;;;28.53;13.00;;;;;;;3.58;100.00;100346.28;5000708;28;20205;-76
2022/02/04 07:27:47;;;;;;;24.50;12.07;;;;;;;3.59;100.00;100348.88;4999507;28;20201;-76
2022/02/04 07:30:15;;;;;;;30.23;12.60;;;;;;;3.62;100.00;100347.16;5003278;28;20223;-76
2022/02/04 07:32:49;;;;;;;26.60;12.80;;;;;;;3.64;100.00;100342.84;5001685;28;20238;-77
2022/02/04 07:35:32;;;;;;;28.83;12.83;;;;;;;3.66;100.00;100338.53;4996554;28;20693;-77
2022/02/04 07:40:54;;;;;;;24.70;12.40;;;;;;;3.69;100.00;100341.13;5001435;28;20231;-76
2022/02/04 07:43:22;;;;;;;26.87;12.90;;;;;;;3.72;100.00;100346.28;5000168;28;20189;-76
2022/02/04 07:45:48;;;;;;;26.63;11.63;;;;;;;3.72;100.00;100349.69;4998449;28;20196;-76
2022/02/04 07:48:15;;;;;;;23.47;10.63;;;;;;;3.75;100.00;100349.69;5001607;28;20208;-77
2022/02/04 07:50:43;;;;;;;26.20;11.53;;;;;;;3.76;100.00;100347.97;4999238;28;20793;-77
2022/02/04 07:53:11;;;;;;;25.20;11.57;;;;;;;3.77;100.00;100355.72;5002277;28;20217;-76
2022/02/04 07:55:37;;;;;;;27.50;11.53;;;;;;;3.81;100.00;100353.97;5000340;28;20211;-77
2022/02/04 07:58:04;;;;;;;25.30;12.07;;;;;;;3.81;100.00;100350.53;4998715;28;20468;-76
2022/02/04 08:00:30;;;;;;;23.57;11.03;;;;;;;3.82;100.00;100347.97;5003655;28;20232;-76
2022/02/04 08:03:02;;;;;;;27.10;12.07;;;;;;;3.85;100.00;100350.50;4995715;28;20205;-77
2022/02/04 08:05:29;;;;;;;22.57;11.50;;;;;;;3.87;100.00;100348.81;5002289;28;20197;-76
2022/02/04 08:08:02;;;;;;;23.40;11.00;;;;;;;3.88;100.00;100349.66;4998495;28;20209;-77
2022/02/04 08:10:36;;;;;;;24.27;11.80;;;;;;;3.91;100.00;100347.09;5002343;28;20236;-76
2022/02/04 08:16:25;;;;;;;18.87;10.27;;;;;;;3.88;100.00;100347.09;5083741;27;20580;-75
2022/02/04 08:19:19;;;;;;;21.07;9.90;;;;;;;3.87;100.00;100353.09;5082525;28;20230;-76
2022/02/04 08:22:13;;;;;;;17.53;9.80;;;;;;;3.87;100.00;100347.94;5075445;28;20289;-75
2022/02/04 08:24:52;;;;;;;17.80;9.13;;;;;;;3.87;100.00;100343.66;5079016;28;20691;-75
2022/02/04 08:27:41;;;;;;;18.20;8.40;;;;;;;3.86;100.00;100343.66;5073854;28;20593;-75
2022/02/04 08:30:39;;;;;;;16.67;8.67;;;;;;;3.86;100.00;100344.50;5079385;28;20619;-76
2022/02/04 08:33:34;;;;;;;15.80;8.90;;;;;;;3.90;100.00;100335.88;5077309;28;20585;-76
2022/02/04 08:36:16;;;;;;;17.07;8.53;;;;;;;3.91;100.00;100337.63;5072072;28;20194;-75
2022/02/04 08:38:55;;;;;;;18.20;9.70;;;;;;;3.94;100.00;100336.72;5079753;28;20244;-75
2022/02/04 08:49:59;;;;;;;16.83;8.57;;;;;;;4.04;100.00;100335.84;5073259;28;20215;-75
2022/02/04 08:52:38;;;;;;;13.67;7.90;;;;;;;4.08;100.00;100347.00;5074413;28;20207;-75
2022/02/04 08:55:09;;;;;;;17.60;8.87;;;;;;;4.13;100.00;100350.44;5071070;28;20214;-75
2022/02/04 08:57:46;;;;;;;15.53;7.87;;;;;;;4.20;100.00;100344.38;5074218;28;20194;-75
2022/02/04 09:00:21;;;;;;;14.60;7.97;;;;;;;4.23;100.00;100343.50;5067602;28;20287;-75
2022/02/04 09:02:54;;;;;;;14.00;7.53;;;;;;;4.27;100.00;100340.91;5071445;28;20301;-75
2022/02/04 09:05:30;;;;;;;16.67;8.63;;;;;;;4.33;100.00;100337.44;5070163;28;20293;-76
2022/02/04 09:08:12;;;;;;;10.90;7.13;;;;;;;4.38;100.00;100329.66;5077219;28;20198;-75
2022/02/04 09:10:39;;;;;;;12.30;7.50;;;;;;;4.46;100.00;100327.91;5074342;28;20280;-76
2022/02/04 09:19:00;;;;;;;13.47;7.77;;;;;;;4.63;100.00;100335.56;5078874;28;20210;-75
2022/02/04 09:21:51;;;;;;;13.80;7.60;;;;;;;4.73;100.00;100332.03;5073942;28;20865;-75
2022/02/04 09:24:19;;;;;;;13.13;7.17;;;;;;;4.82;100.00;100331.09;5076003;28;20206;-76
2022/02/04 09:26:45;;;;;;;12.00;6.90;;;;;;;4.85;100.00;100333.69;5073219;28;20273;-76
2022/02/04 09:29:12;;;;;;;10.23;7.10;;;;;;;4.89;100.00;100332.78;5064072;28;20701;-76
2022/02/04 09:31:39;;;;;;;12.83;6.73;;;;;;;4.96;100.00;100328.41;5062523;28;20218;-75
2022/02/04 09:34:07;;;;;;;11.63;6.67;;;;;;;5.01;100.00;100330.09;5063606;28;20648;-75
2022/02/04 09:36:35;;;;;;;9.27;5.87;;;;;;;5.00;100.00;100328.41;5062953;28;20195;-76
2022/02/04 09:39:01;;;;;;;11.07;6.30;;;;;;;5.05;100.00;100315.44;5059906;28;20214;-76
2022/02/04 09:41:28;;;;;;;7.93;5.77;;;;;;;5.08;100.00;100317.97;5057719;28;20644;-75
2022/02/04 09:43:55;;;;;;;8.73;5.93;;;;;;;5.14;100.00;100320.53;5059757;28;20210;-76
2022/02/04 09:46:21;;;;;;;9.93;5.87;;;;;;;5.21;100.00;100324.78;5061735;28;20199;-76
2022/02/04 09:48:52;;;;;;;10.00;7.53;;;;;;;5.23;100.00;100322.19;5062189;28;20309;-76
2022/02/04 09:51:22;;;;;;;8.73;5.80;;;;;;;5.23;100.00;100333.38;5061463;28;20302;-76
2022/02/04 10:06:02;;;;;;;7.07;5.03;;;;;;;5.50;100.00;100310.69;5060228;28;20207;-75
2022/02/04 10:08:16;;;;;;;6.63;4.87;;;;;;;5.48;100.00;100315.88;5055655;28;20194;-76
2022/02/04 10:16:23;;;;;;;6.53;4.53;;;;;;;5.54;100.00;100311.53;5065720;28;20218;-76
2022/02/04 10:19:02;;;;;;;6.23;4.80;;;;;;;5.60;100.00;100308.88;5060314;28;20225;-76
2022/02/04 10:21:29;;;;;;;6.57;4.37;;;;;;;5.71;100.00;100312.19;5057155;28;20207;-76
2022/02/04 10:23:58;;;;;;;7.53;4.83;;;;;;;5.78;100.00;100313.84;5057837;28;20206;-75
2022/02/04 10:26:27;;;;;;;6.87;4.93;;;;;;;5.84;100.00;100313.78;5063435;28;20449;-75
2022/02/04 10:28:55;;;;;;;6.67;4.97;;;;;;;5.92;100.00;100305.06;5061111;28;20227;-75
2022/02/04 10:31:24;;;;;;;7.10;5.00;;;;;;;5.95;100.00;100302.47;5061971;28;20261;-75
2022/02/04 10:33:59;;;;;;;6.73;4.83;;;;;;;5.98;100.00;100298.13;5058596;28;20207;-75
2022/02/04 10:36:48;;;;;;;7.00;4.57;;;;;;;6.03;100.00;100303.22;5064876;28;20222;-76
2022/02/04 10:39:50;;;;;;;7.50;4.03;;;;;;;6.03;100.00;100301.53;5054797;28;20641;-75
2022/02/04 10:42:30;;;;;;;5.77;4.27;;;;;;;6.01;100.00;100297.22;5054896;28;20297;-76
2022/02/04 10:48:16;;;;;;;6.20;4.73;;;;;;;6.04;100.00;100295.44;4994913;28;20216;-75
2022/02/04 10:51:07;;;;;;;5.37;4.17;;;;;;;6.11;100.00;100293.66;5051253;28;20294;-76
2022/02/04 11:04:53;;;;;;;4.50;3.40;;;;;;;5.92;100.00;100281.78;5057716;28;20207;-75
2022/02/04 11:10:18;;;;;;;3.90;3.10;;;;;;;5.93;100.00;100275.72;5055303;28;20287;-76
2022/02/04 11:33:12;;;;;;;3.40;2.80;;;;;;;6.21;100.00;100251.22;5060683;28;20225;-76
2022/02/04 11:35:25;;;;;;;4.50;2.90;;;;;;;6.26;100.00;100251.16;5061984;28;20207;-76
2022/02/04 11:43:58;;;;;;;3.17;2.33;;;;;;;6.19;100.00;100265.06;5062897;28;20221;-75
2022/02/04 11:52:42;;;;;;;3.47;2.40;;;;;;;6.15;100.00;100233.19;5057235;28;20748;-75
2022/02/04 11:55:31;;;;;;;2.93;2.20;;;;;;;6.21;100.00;100227.09;5055240;28;20612;-74
2022/02/04 11:58:02;;;;;;;2.97;2.43;;;;;;;6.26;100.00;100207.13;5060094;28;20346;-74
2022/02/04 12:00:31;;;;;;;3.57;2.80;;;;;;;6.34;100.00;100210.47;5057901;28;20219;-75
2022/02/04 12:02:58;;;;;;;2.43;2.20;;;;;;;6.35;100.00;100204.44;5061441;28;20683;-75
2022/02/04 12:05:33;;;;;;;5.20;2.80;;;;;;;6.28;100.00;100209.69;5058605;28;20199;-74
2022/02/04 12:08:36;;;;;;;4.00;2.63;;;;;;;6.23;100.00;100213.22;5058424;28;20583;-74
2022/02/04 12:11:07;;;;;;;2.80;2.13;;;;;;;6.22;100.00;100219.25;5054820;28;20290;-75
2022/02/04 12:14:11;;;;;;;2.37;2.13;;;;;;;6.25;100.00;100195.94;5062784;28;20252;-74
2022/02/04 12:17:01;;;;;;;3.80;2.43;;;;;;;6.31;100.00;100199.31;5053983;28;20247;-73
2022/02/04 12:19:39;;;;;;;2.80;2.10;;;;;;;6.36;100.00;100187.16;5055485;28;20735;-74
2022/02/04 12:22:08;;;;;;;2.47;2.10;;;;;;;6.33;100.00;100193.25;5058284;28;20199;-75
2022/02/04 12:24:41;;;;;;;3.07;2.40;;;;;;;6.34;100.00;100183.72;5056267;28;20224;-75
2022/02/04 12:27:37;;;;;;;3.20;2.30;;;;;;;6.30;100.00;100169.09;5057195;28;20560;-74
2022/02/04 12:30:44;;;;;;;2.77;2.00;;;;;;;6.29;100.00;100168.25;5054970;28;20211;-75
2022/02/04 12:33:14;;;;;;;5.63;2.10;;;;;;;6.35;100.00;100167.28;5059057;28;20203;-75
2022/02/04 12:35:40;;;;;;;1.80;1.67;;;;;;;6.31;100.00;100170.81;5059291;28;20207;-74
2022/02/04 12:38:08;;;;;;;3.93;1.60;;;;;;;6.32;100.00;100167.38;5061813;28;20225;-74
2022/02/04 12:40:35;;;;;;;2.00;1.80;;;;;;;6.32;100.00;100155.28;5060922;28;20187;-74
2022/02/04 12:43:01;;;;;;;2.30;2.10;;;;;;;6.37;100.00;100163.81;5064223;28;20196;-74
2022/02/04 12:45:29;;;;;;;2.37;2.17;;;;;;;6.43;100.00;100153.34;5060842;28;20213;-74
2022/02/04 12:48:04;;;;;;;2.90;1.60;;;;;;;6.53;100.00;100150.63;5054691;28;20200;-75
2022/02/04 12:50:30;;;;;;;2.23;1.90;;;;;;;6.52;100.00;100159.25;5055992;28;21011;-75
2022/02/04 12:52:57;;;;;;;1.80;1.50;;;;;;;6.53;100.00;100154.06;5055003;28;20571;-74
2022/02/04 12:55:34;;;;;;;2.00;1.80;;;;;;;6.53;100.00;100150.63;5060947;28;20210;-75
2022/02/04 12:58:14;;;;;;;1.87;1.77;;;;;;;6.51;100.00;100147.19;5053284;28;20202;-74
2022/02/04 13:03:31;;;;;;;1.97;1.60;;;;;;;6.55;100.00;100141.09;5060725;28;20199;-75
2022/02/04 13:08:45;;;;;;;1.83;1.73;;;;;;;6.53;100.00;100127.31;5062588;28;20218;-74
2022/02/04 13:11:18;;;;;;;2.13;1.87;;;;;;;6.56;100.00;100124.66;5061572;28;20199;-75
2022/02/04 13:13:48;;;;;;;2.00;1.77;;;;;;;6.60;100.00;100121.97;5057265;28;20289;-74
2022/02/04 13:16:15;;;;;;;1.97;1.80;;;;;;;6.67;100.00;100124.47;5062019;28;20728;-74
2022/02/04 13:18:42;;;;;;;2.27;2.07;;;;;;;6.68;100.00;100121.00;5061468;28;20232;-74
2022/02/04 13:21:09;;;;;;;1.93;1.73;;;;;;;6.67;100.00;100127.91;5058336;28;20755;-74
2022/02/04 13:23:35;;;;;;;1.83;1.67;;;;;;;6.75;100.00;100112.22;5061083;28;20200;-74
2022/02/04 13:26:04;;;;;;;2.00;1.80;;;;;;;6.70;100.00;100117.50;5057483;28;20200;-74
2022/02/04 13:28:33;;;;;;;2.13;1.97;;;;;;;6.68;100.00;100108.88;5063558;28;20225;-74
2022/02/04 13:31:03;;;;;;;2.33;2.00;;;;;;;6.69;100.00;100097.66;5054873;28;20204;-75
2022/02/04 13:33:31;;;;;;;2.50;1.57;;;;;;;6.69;100.00;100099.41;5060932;28;20668;-75
2022/02/04 13:36:04;;;;;;;2.20;2.00;;;;;;;6.70;99.79;100090.72;5062414;28;20716;-74
2022/02/04 13:38:46;;;;;;;1.93;1.60;;;;;;;6.75;100.00;100087.16;5060826;28;20224;-74
2022/02/04 13:41:24;;;;;;;2.00;1.80;;;;;;;6.72;100.00;100092.41;5057759;28;20228;-74
2022/02/04 13:47:15;;;;;;;2.17;1.90;;;;;;;6.74;100.00;100082.88;5053563;28;20308;-74
2022/02/04 13:50:00;;;;;;;2.07;1.83;;;;;;;6.71;100.00;100092.44;5061023;28;20365;-74
2022/02/04 13:52:48;;;;;;;2.83;1.77;;;;;;;6.72;100.00;100088.94;5069980;28;20227;-75
2022/02/04 13:55:27;;;;;;;3.37;2.00;;;;;;;6.66;99.31;100087.34;5057708;28;20340;-74
2022/02/04 13:58:09;;;;;;;1.77;1.63;;;;;;;6.65;99.54;100088.25;5061672;28;20860;-75
2022/02/04 14:00:51;;;;;;;2.13;1.70;;;;;;;6.67;99.58;100083.03;5073438;28;20208;-74
2022/02/04 14:03:21;;;;;;;2.07;1.83;;;;;;;6.69;100.00;100071.75;5057298;28;20268;-74
2022/02/04 14:05:53;;;;;;;2.07;1.67;;;;;;;6.69;100.00;100065.72;5054926;28;20577;-74
2022/02/04 14:08:29;;;;;;;1.67;1.30;;;;;;;6.62;98.95;100068.41;5060579;28;20220;-74
2022/02/04 14:10:58;;;;;;;1.47;1.20;;;;;;;6.59;98.64;100065.88;5057348;28;20222;-74
2022/02/04 14:13:29;;;;;;;2.00;1.80;;;;;;;6.61;99.46;100053.75;5062189;28;20213;-73
2022/02/04 14:15:59;;;;;;;1.47;1.30;;;;;;;6.57;99.01;100056.44;5056857;28;20627;-74
2022/02/04 14:18:27;;;;;;;1.17;1.13;;;;;;;6.50;98.96;100045.31;5054569;28;20575;-74
2022/02/04 14:20:54;;;;;;;1.57;1.40;;;;;;;6.44;100.00;100042.88;5057341;28;20203;-74
2022/02/04 14:23:21;;;;;;;1.43;1.33;;;;;;;6.38;100.00;100048.13;5057426;28;20198;-75
2022/02/04 14:25:55;;;;;;;1.67;1.30;;;;;;;6.34;99.47;100046.50;5056070;28;20198;-74
2022/02/04 14:28:30;;;;;;;2.20;2.00;;;;;;;6.32;99.88;100038.75;5057432;28;20757;-74
2022/02/04 14:31:04;;;;;;;1.70;1.60;;;;;;;6.30;100.00;100035.34;5056922;28;20213;-75
2022/02/04 14:34:35;;;;;;;1.33;1.23;;;;;;;6.28;100.00;100026.75;5054684;28;20490;-75
2022/02/04 14:36:46;;;;;;;1.37;1.23;;;;;;;6.28;100.00;100036.22;5050969;28;20212;-74
2022/02/04 14:53:07;;;;;;;2.23;1.23;;;;;;;6.18;100.00;100013.09;4981576;28;20324;-74
2022/02/04 15:01:22;;;;;;;1.30;1.20;;;;;;;6.11;100.00;100016.69;5016141;28;20206;-75
2022/02/04 15:04:01;;;;;;;1.47;1.20;;;;;;;6.10;100.00;100011.53;5016756;28;20219;-75
2022/02/04 15:06:31;;;;;;;1.00;0.90;;;;;;;6.07;100.00;100013.31;5035562;28;20209;-75
2022/02/04 15:08:57;;;;;;;1.03;0.93;;;;;;;6.08;100.00;100001.19;5055917;28;20303;-75
2022/02/04 15:11:30;;;;;;;1.13;1.00;;;;;;;6.06;100.00;99993.47;5056727;28;20225;-74
2022/02/04 15:13:58;;;;;;;1.50;1.10;;;;;;;6.07;100.00;99995.19;5061901;28;20202;-74
2022/02/04 15:16:24;;;;;;;1.10;1.00;;;;;;;6.05;100.00;99990.91;5056471;28;20264;-74
2022/02/04 15:18:53;;;;;;;1.23;1.13;;;;;;;6.01;100.00;99982.34;5055970;28;20712;-74
2022/02/04 15:21:20;;;;;;;1.37;1.27;;;;;;;5.99;100.00;99988.44;5056430;28;20210;-75
2022/02/04 15:23:51;;;;;;;2.07;1.20;;;;;;;5.98;100.00;99981.53;5059795;28;20215;-74
2022/02/04 15:26:21;;;;;;;0.80;0.80;;;;;;;5.95;100.00;99982.44;5050201;28;20202;-74
2022/02/04 15:28:50;;;;;;;1.03;0.97;;;;;;;5.92;100.00;99969.53;5054093;28;20239;-74
2022/02/04 15:31:25;;;;;;;2.37;1.80;;;;;;;5.93;100.00;99976.44;5055129;28;20755;-73
2022/02/04 15:33:53;;;;;;;4.40;3.33;;;;;;;5.92;100.00;99966.09;5053477;28;20769;-74